Weather History for Wolf Creek Pass, CO

Change the Weather History Date:

Sunday, February 17, 2013

  Actual Average (KALS) Record (KALS)
Temperature  
Mean Temperature 20 °F 24 °F  
Max Temperature 26 °F 41 °F 58 °F (1970)
Min Temperature 14 °F 7 °F -18 °F (1939)
Degree Days  
Heating Degree Days 45 41  
Month to date heating degree days 752  
Since 1 July heating degree days 5899  
Cooling Degree Days 0 0  
Month to date cooling degree days 0  
Year to date cooling degree days 0  
Moisture  
Dew Point -5 °F    
Average Humidity 37    
Maximum Humidity 57    
Minimum Humidity 17    
Precipitation  
Precipitation 0.00 in 0.01 in 0.14 in (1987)
Month to date precipitation 0.15  
Year to date precipitation 0.41  
Snow  
Snow 0.00 in 0.10 in 2.40 in (1987)
Month to date snowfall 2.3  
Since 1 July snowfall 16.6  
Snow Depth -    
Sea Level Pressure  
Sea Level Pressure 29.96 in    
Wind  
Wind Speed 15 mph (SW)    
Max Wind Speed 26 mph    
Max Gust Speed 40 mph    
Visibility 10 miles    
Events      
T = Trace of Precipitation, MM = Missing Value Source: NWS Daily Summary

Daily Weather History Graph

Daily Weather History Graph

Search for Another Location

Airport:

Trip Planner

Search our weather history database for the weather conditions in past years. The results will help you decide how hot, cold, wet, or windy it might be!

Date:

Astronomy

Feb. 17, 2013 Rise Set
Actual Time 6:53 AM MST 5:49 PM MST
Civil Twilight 6:27 AM MST 6:15 PM MST
Nautical Twilight 5:56 AM MST 6:46 PM MST
Astronomical Twilight 5:26 AM MST 7:16 PM MST
Moon 10:58 AM MST (2/17) 12:37 AM MST (2/17)
Length of Visible Light 11h 48m
Length of Day
10h 55m
Waxing Crescent, 49% of the Moon is Illuminated
Feb 17
Waxing Crescent
Feb 17
First Quarter
Feb 25
Full
Mar 4
Last Quarter
Mar 11
New

Hourly Weather History & Observations

Time (MST) Temp. Windchill Dew Point Humidity Pressure Visibility Wind Dir Wind Speed Gust Speed Precip Events Conditions
12:11 AM 17.6 °F 9.3 °F -4.0 °F 38% 30.20 in 10.0 mi SW 5.8 mph - N/A   Clear
12:31 AM 17.6 °F 6.4 °F -5.8 °F 35% 30.20 in 10.0 mi SW 9.2 mph - N/A   Clear
12:51 AM 17.6 °F 6.4 °F -0.4 °F 45% 30.19 in 10.0 mi SW 9.2 mph - N/A   Clear
1:11 AM 17.6 °F 5.0 °F 1.4 °F 49% 30.19 in 10.0 mi SW 11.5 mph - N/A   Clear
1:32 AM 17.6 °F 5.7 °F -0.4 °F 45% 30.19 in 10.0 mi SW 10.4 mph 17.3 mph N/A   Clear
1:50 AM 17.6 °F 5.0 °F -5.8 °F 35% 30.19 in 10.0 mi SW 11.5 mph - N/A   Clear
2:12 AM 17.6 °F 3.7 °F -5.8 °F 35% 30.18 in 10.0 mi SW 13.8 mph - N/A   Clear
2:31 AM 17.6 °F 4.3 °F -5.8 °F 35% 30.17 in 10.0 mi SW 12.7 mph - N/A   Clear
2:52 AM 17.6 °F 4.3 °F -4.0 °F 38% 30.16 in 10.0 mi SW 12.7 mph - N/A   Clear
3:12 AM 15.8 °F 0.9 °F -0.4 °F 49% 30.14 in 10.0 mi SW 15.0 mph - N/A   Clear
3:31 AM 15.8 °F 0.3 °F -0.4 °F 49% 30.13 in 10.0 mi SW 16.1 mph - N/A   Clear
3:51 AM 15.8 °F 0.9 °F -2.2 °F 45% 30.13 in 10.0 mi SW 15.0 mph - N/A   Clear
4:11 AM 14.0 °F -1.4 °F -0.4 °F 53% 30.12 in 10.0 mi SW 15.0 mph - N/A   Clear
4:32 AM 15.8 °F -0.2 °F -2.2 °F 45% 30.11 in 10.0 mi SW 17.3 mph - N/A   Clear
4:51 AM 15.8 °F -0.6 °F -4.0 °F 41% 30.11 in 10.0 mi SW 18.4 mph - N/A   Clear
5:11 AM 15.8 °F -0.6 °F -4.0 °F 41% 30.10 in 10.0 mi SW 18.4 mph - N/A   Clear
5:31 AM 15.8 °F -0.2 °F -5.8 °F 38% 30.10 in 10.0 mi SW 17.3 mph - N/A   Clear
5:52 AM 15.8 °F 0.3 °F -7.6 °F 35% 30.09 in 10.0 mi SW 16.1 mph - N/A   Clear
6:10 AM 15.8 °F 0.3 °F -7.6 °F 35% 30.09 in 10.0 mi SW 16.1 mph - N/A   Clear
6:31 AM 15.8 °F 0.9 °F -9.4 °F 32% 30.08 in 10.0 mi SW 15.0 mph - N/A   Clear
6:52 AM 15.8 °F 0.3 °F -9.4 °F 32% 30.07 in 10.0 mi SW 16.1 mph - N/A   Clear
7:30 AM 17.6 °F 1.3 °F -13.0 °F 25% 30.07 in 10.0 mi SW 19.6 mph - N/A   Clear
7:52 AM 17.6 °F 1.3 °F -13.0 °F 25% 30.07 in 10.0 mi SW 19.6 mph - N/A   Clear
8:11 AM 19.4 °F 5.0 °F -13.0 °F 23% 30.06 in 10.0 mi SW 16.1 mph - N/A   Clear
8:32 AM 21.2 °F 7.8 °F -11.2 °F 24% 30.06 in 10.0 mi SSW 15.0 mph 20.7 mph N/A   Clear
8:51 AM 21.2 °F 8.3 °F -13.0 °F 22% 30.06 in 10.0 mi SSW 13.8 mph 19.6 mph N/A   Clear
9:12 AM 21.2 °F 8.3 °F -11.2 °F 24% 30.06 in 10.0 mi SW 13.8 mph 21.9 mph N/A   Clear
9:31 AM 21.2 °F 7.8 °F -11.2 °F 24% 30.04 in 10.0 mi SSW 15.0 mph 19.6 mph N/A   Clear
9:52 AM 23.0 °F 11.1 °F -11.2 °F 22% 30.04 in 10.0 mi SW 12.7 mph 24.2 mph N/A   Clear
10:12 AM 24.8 °F 12.9 °F -9.4 °F 22% 30.03 in 10.0 mi SSW 13.8 mph 26.5 mph N/A   Clear
10:32 AM 24.8 °F 12.4 °F -9.4 °F 22% 30.02 in 10.0 mi SSW 15.0 mph 23.0 mph N/A   Clear
10:49 AM 23.0 °F 14.7 °F -7.6 °F 26% 30.01 in 10.0 mi SSW 6.9 mph 24.2 mph N/A   Clear
11:11 AM 24.8 °F 12.4 °F -9.4 °F 22% 30.00 in 10.0 mi SW 15.0 mph 26.5 mph N/A   Clear
11:31 AM 26.6 °F 13.8 °F -9.4 °F 21% 29.99 in 10.0 mi SW 17.3 mph 29.9 mph N/A   Scattered Clouds
11:51 AM 26.6 °F 13.1 °F -13.0 °F 17% 29.98 in 10.0 mi SW 19.6 mph 27.6 mph N/A   Scattered Clouds
12:12 PM 26.6 °F 14.3 °F -13.0 °F 17% 29.96 in 10.0 mi SSW 16.1 mph 29.9 mph N/A   Clear
12:31 PM 24.8 °F 10.3 °F -13.0 °F 19% 29.94 in 10.0 mi SSW 20.7 mph 31.1 mph N/A   Scattered Clouds
12:51 PM 26.6 °F 13.1 °F -13.0 °F 17% 29.92 in 10.0 mi SW 19.6 mph 31.1 mph N/A   Clear
1:11 PM 24.8 °F 9.6 °F -13.0 °F 19% 29.91 in 10.0 mi SW 23.0 mph 35.7 mph N/A   Scattered Clouds
1:31 PM 23.0 °F 8.0 °F -13.0 °F 20% 29.90 in 10.0 mi SSW 20.7 mph 34.5 mph N/A   Mostly Cloudy
1:51 PM 23.0 °F 7.2 °F -13.0 °F 20% 29.89 in 10.0 mi SW 23.0 mph 35.7 mph N/A   Scattered Clouds
2:12 PM 21.2 °F 4.5 °F -7.6 °F 28% 29.87 in 10.0 mi SSW 24.2 mph 38.0 mph N/A   Mostly Cloudy
2:32 PM 21.2 °F 5.2 °F -4.0 °F 33% 29.86 in 10.0 mi SW 21.9 mph 32.2 mph N/A   Overcast
2:51 PM 21.2 °F 6.0 °F -2.2 °F 36% 29.85 in 10.0 mi SW 19.6 mph 40.3 mph N/A   Overcast
3:12 PM 21.2 °F 3.9 °F -0.4 °F 39% 29.84 in 10.0 mi SSW 26.5 mph 35.7 mph N/A   Overcast
3:32 PM 21.2 °F 5.6 °F -0.4 °F 39% 29.84 in 10.0 mi SW 20.7 mph 31.1 mph N/A   Overcast
3:52 PM 21.2 °F 6.4 °F -0.4 °F 39% 29.84 in 10.0 mi SW 18.4 mph 33.4 mph N/A   Mostly Cloudy
4:10 PM 19.4 °F 2.5 °F -0.4 °F 42% 29.84 in 10.0 mi SW 23.0 mph 33.4 mph N/A   Mostly Cloudy
4:31 PM 19.4 °F 3.6 °F -0.4 °F 42% 29.82 in 10.0 mi SW 19.6 mph 34.5 mph N/A   Scattered Clouds
4:51 PM 19.4 °F 2.8 °F -0.4 °F 42% 29.81 in 10.0 mi SW 21.9 mph 35.7 mph N/A   Scattered Clouds
5:10 PM 19.4 °F 3.6 °F -0.4 °F 42% 29.81 in 10.0 mi SW 19.6 mph 34.5 mph N/A   Overcast
5:31 PM 19.4 °F 5.5 °F -0.4 °F 42% 29.81 in 10.0 mi SW 15.0 mph 31.1 mph N/A   Mostly Cloudy
5:52 PM 19.4 °F 6.0 °F -2.2 °F 39% 29.81 in 10.0 mi SW 13.8 mph 35.7 mph N/A   Scattered Clouds
6:12 PM 17.6 °F 3.2 °F -0.4 °F 45% 29.81 in 10.0 mi SW 15.0 mph 26.5 mph N/A   Clear
6:31 PM 17.6 °F -0.3 °F -0.4 °F 45% 29.81 in 10.0 mi SW 24.2 mph 34.5 mph N/A   Clear
6:52 PM 17.6 °F 0.9 °F -0.4 °F 45% 29.81 in 10.0 mi SW 20.7 mph 32.2 mph N/A   Clear
7:12 PM 15.8 °F -0.2 °F 1.4 °F 53% 29.81 in 10.0 mi SW 17.3 mph 27.6 mph N/A   Scattered Clouds
7:31 PM 17.6 °F 2.2 °F 1.4 °F 49% 29.81 in 10.0 mi SW 17.3 mph 26.5 mph N/A   Mostly Cloudy
7:51 PM 17.6 °F 0.9 °F 1.4 °F 49% 29.80 in 10.0 mi WSW 20.7 mph 33.4 mph N/A   Overcast
8:12 PM 17.6 °F 0.9 °F 1.4 °F 49% 29.79 in 10.0 mi WSW 20.7 mph 27.6 mph N/A   Overcast
8:31 PM 17.6 °F -0.3 °F 3.2 °F 53% 29.78 in 10.0 mi SW 24.2 mph 39.1 mph N/A   Overcast
8:51 PM 17.6 °F -0.3 °F 1.4 °F 49% 29.77 in 10.0 mi SW 24.2 mph 35.7 mph N/A   Overcast
9:11 PM 17.6 °F 1.7 °F 1.4 °F 49% 29.77 in 10.0 mi SW 18.4 mph 34.5 mph N/A   Overcast
9:31 PM 15.8 °F -2.3 °F 1.4 °F 53% 29.77 in 10.0 mi SW 23.0 mph 36.8 mph N/A   Mostly Cloudy
9:51 PM 15.8 °F -0.6 °F -0.4 °F 49% 29.78 in 10.0 mi SW 18.4 mph 31.1 mph N/A   Clear
10:11 PM 14.0 °F -5.5 °F -0.4 °F 53% 29.76 in 10.0 mi SW 25.3 mph 36.8 mph N/A   Clear
10:32 PM 14.0 °F -3.9 °F -0.4 °F 53% 29.76 in 10.0 mi SW 20.7 mph 32.2 mph N/A   Clear
10:52 PM 14.0 °F -2.5 °F -0.4 °F 53% 29.77 in 10.0 mi WSW 17.3 mph 23.0 mph N/A   Clear
11:12 PM 14.0 °F -3.0 °F -0.4 °F 53% 29.77 in 10.0 mi SW 18.4 mph 25.3 mph N/A   Clear
11:32 PM 14.0 °F -3.4 °F -0.4 °F 53% 29.76 in 10.0 mi SW 19.6 mph 29.9 mph N/A   Scattered Clouds
11:51 PM 14.0 °F -4.3 °F 1.4 °F 57% 29.76 in 10.0 mi WSW 21.9 mph 31.1 mph N/A   Clear